メインページ
METAR-TAF:

METAR-TAF

空港 :

高松空港

高松, 日本

緯度: 34-13N, 経度: 134-01E, 海抜: 185m

現時点の気象観測

当レポートは51分前の11:00(UTC)に作成
の風 3kt
気温 17°C
湿度 68%
気圧 1018 hPa
視程10km以上
高度3000ftの雲はほとんどない
高度5000ftの雲は散在している
千切れ雲あり

METAR: RJOT 201100Z 10003KT 9999 FEW030 SCT050 BKN/// 17/11 Q1018

時間: 20:51 (11:51 UTC)

予報

当レポートは41分前の11:10(UTC)に作成
予報は20日の 12時(UTC)から 21日の 18時(UTC)まで有効
南/南東の風 8kt
視程10km以上
高度3000ftの雲はほとんどない
高度5000ftの千切れ雲あり
20日の 22時(UTC)から 21日の 00時(UTC)まで徐々に
東/北東の風 14kt
21日の 09時(UTC)から 21日の 12時(UTC)まで徐々に
南/南東の風 7kt

TAF: RJOT 201110Z 2012/2118 15008KT 9999 FEW030 BKN050 BECMG 2022/2100 07014KT BECMG 2109/2112 15007KT

4,000以上の空港の気象観測と天気予報(METAR報とTAF報)

利用可能な観測所は地図上に黄色い丸と赤い丸で示す。

丸の上にカーソルを重ねると観測所名を参照できる。

次にクリックすると気象観測と天気予報を参照できる。

マップの切り替え:黒色「×」印の緑ボタンをクリックして拡大、「-」印の緑ボタンをクリックして縮小、緑色の三角印をクリックして隣りの地図に切り替え


METAR-TAF: